Terminal Aerodrome Forecast
Issued by NWS Upton, NY

Home | Current Version | Previous Version | Text Only | Print | Product List | Glossary On
Versions: 1 2 3 4 5 6 7 8 9 10 11 12 13 14 15 16 17 18 19 20 21 22 23 24 25 26 27 28 29 30 31 32
950
FTUS41 KOKX 290240 AAA
TAFISP
TAF AMD
KISP 290240Z 2903/2924 11006KT P6SM VCSH BKN060 OVC100
     FM290600 08006KT P6SM OVC060
     FM290900 08008KT P6SM OVC060
     FM291600 10010KT P6SM BKN060=

USA.gov is the U.S. government's official web portal to all federal, state and local government web resources and services.